Crescent City, FL (32112)

19:17 EDT le 25 avril 2015 (GMT -0400)
South end of Crescent Lake | | Change Station
CLOSE
Current Station
Stations météorologiques personnelles
Location: Crescent City, FL
Altitude: 16 ft
Stations météo à proximité

Alt. 16 ft 29.39 °N, 81.47 °W | Updated 2 minutes ago

Partiellement nuageux
Partiellement nuageux
82.8 ° F
Paraît 87 ° F
N
7.0
Vent Variable Vent de ONO
Gusts 9.0 mph

Aujourd'hui
Haut(e) -- | Bas -- ° F
--% Risque de précip.
Hier
Haut(e) -- | Bas -- ° F
Precip. -- pouce
6:49 AM 7:58 PM
Lune montante, 50% visible
Pression 29.78 pouce
Visibilité 10.0 Miles terrestres
Nuages Ciel dégagé
indice de chaleur 87 ° F
Point de rosée 70 ° F
Humidité 66%
Précipitations 0.00 pouce
Profondeur de la couche neigeuse Non disponible.
UV 1 sur 12
Pollen 8.60 sur 12
Qualité de l'air Non disponible.
Flu Activity Local Activity
METAR KOMN 252250Z 24010KT 10SM SKC 29/20 A2978 RMK LAST

More Conditions Fewer Conditions

Pression 29.78 pouce
Visibilité 10.0 Miles terrestres
Nuages Ciel dégagé
indice de chaleur 87 ° F
Point de rosée 70 ° F
Humidité 66%
Précipitations 0.00 pouce
Profondeur de la couche neigeuse Non disponible.
UV 1 sur 12
Pollen 8.60 sur 12
Qualité de l'air Non disponible.
Flu Activity Local Activity
METAR KOMN 252250Z 24010KT 10SM SKC 29/20 A2978 RMK LAST

More Conditions Fewer Conditions

10-Day Weather Forecast

Almanac

Astronomie

Apr. 25, 2015 Lever Coucher
Temps réel
Crépuscule civil
Crépuscule nautique
Crépuscule astronomique
Lune
Durée de lumière visible
Longueur du jour
Tomorrow will be .
, % of the Moon is Illuminated

Extrêmes aujourd'hui

State Highs State Lows

Community

WunderPhotos

Upload Photos

1,816,845 Photos téléchargées !

WunderBlogs® & News

Nearby

Qualité de l'air

  Qualité de l'air Indice de la qualité de l'air Polluant
Not available.

Épaisseur de neige

Station Depth Altitude

Activité sismique

Ville Distance Mag. Time & Date
Minimum magnitude displayed is 2.5.

Températures des eaux côtières

Lieu Température

Stations

Stations météo à proximité

Emplacement de la station Température Refroidissement éolien Point de rosée Humidité Vent Precip. Alt. Mise à jour Type